Main page

Cali, Colombia

Alfonso Bonilla Aragón International Airport

latitude: 03-33N, longitude: 076-23W, elevation: 961 m

Current weather observation

The report was made 55 minutes ago, at 16:00 UTC
Wind 5 kt from the South/Southeast
Temperature 28°C
Humidity 66%
Pressure 1016 hPa
Visibility 10 km or more
Scattered clouds at a height of 2500 ft
Scattered clouds at a height of 15000 ft

METAR: SKCL 041600Z 16005KT 9999 SCT025 SCT150 28/21 A2999

Time: 11:55 (16:55 UTC)


The report was made 5 hours and 55 minutes ago, at 11:00 UTC
Forecast valid from 04 at 12 UTC to 05 at 12 UTC
Wind 7 kt from the North/Northeast
Visibility 10 km or more
Scattered clouds at a height of 3000 ft
Broken clouds at a height of 12000 ft
from 04 at 16 UTC to 04 at 18 UTC
Wind 10 kt from the Northwest
from 04 at 20 UTC to 04 at 23 UTC
Visibility: 8000 m
showers in vicinity, drizzle

TAF: SKCL 041100Z 041212 03007KT 9999 SCT030 BKN120 BECMG 0416/0418 32010KT TEMPO 0420/0423 8000 VCSH DZ TX33/0419Z TN18/0511Z


Weather observations and forecasts of more than 4000 airports (METAR and TAF reports).

The available stations are represented by yellow and red dots on the map.

Hover mouse over dot to see the name of the station.

Then click to see weather observations and forecasts.

To change the map : click on the green buttons with a black cross to zoom in, on the green button with a dash to zoom out, or on the green arrows for adjacent maps.